Terminal Aerodrome Forecast
Issued by NWS

Home | Current Version | Previous Version | Text Only | Print | Product List | Glossary On
Versions: 1 2 3 4 5 6 7 8 9 10 11 12 13
000
FTUS46 KMTR 050531
TAFSTS
TAF
KSTS 050531Z 0506/0606 17005KT P6SM FEW020 SCT250
     FM051200 00000KT P6SM SCT008 BKN250
      TEMPO 0512/0516 BKN008 BKN250
     FM051800 19007KT P6SM SCT250
     FM060300 19004KT P6SM FEW250=

USA.gov is the U.S. government's official web portal to all federal, state and local government web resources and services.